Open Full Screen Window  High Contrast Mode
April 25, 2017 8:05 PM EDT
Weather Information
Wind Direction
  ---
Wind Speed
  00 kt (0 mph)
Wind Gust
  00 kt (0 mph)
Altimeter
29.69 in
Visibility
10 SM
Temperature
22° C
72° F
Dewpoint
13° C
55° F
Humidity
57%
1hr Rain Fall
00.00 in.
24hr Rain Fall
00.00 in.
Sky Condition
Clear
VFR

METAR KI69 260005Z AUTO 00000KT 10SM CLR 22/13 A2969 RMK AO2 T02210127

*Background is not an actual portrayal of the airport.